sensor_id;sensor_type;location;lat;lon;timestamp;P1;durP1;ratioP1;P2;durP2;ratioP2
4742;SDS011;24293;48.154;7.748;2023-08-20T00:00:47;15.23;;;8.07;;
4742;SDS011;24293;48.154;7.748;2023-08-20T00:03:14;13.93;;;8.80;;
4742;SDS011;24293;48.154;7.748;2023-08-20T00:05:40;21.90;;;14.00;;
4742;SDS011;24293;48.154;7.748;2023-08-20T00:08:07;28.07;;;15.70;;
4742;SDS011;24293;48.154;7.748;2023-08-20T00:10:34;11.10;;;8.20;;
4742;SDS011;24293;48.154;7.748;2023-08-20T00:13:01;10.03;;;7.00;;
4742;SDS011;24293;48.154;7.748;2023-08-20T00:15:29;9.60;;;7.40;;
4742;SDS011;24293;48.154;7.748;2023-08-20T00:17:55;12.93;;;7.57;;
4742;SDS011;24293;48.154;7.748;2023-08-20T00:20:23;12.97;;;7.80;;
4742;SDS011;24293;48.154;7.748;2023-08-20T00:22:49;14.23;;;7.90;;
4742;SDS011;24293;48.154;7.748;2023-08-20T00:25:16;11.80;;;7.50;;
4742;SDS011;24293;48.154;7.748;2023-08-20T00:27:43;13.30;;;7.33;;
4742;SDS011;24293;48.154;7.748;2023-08-20T00:30:11;12.97;;;7.87;;
4742;SDS011;24293;48.154;7.748;2023-08-20T00:32:39;11.00;;;7.80;;
4742;SDS011;24293;48.154;7.748;2023-08-20T00:35:05;12.50;;;7.57;;
4742;SDS011;24293;48.154;7.748;2023-08-20T00:37:33;10.47;;;7.17;;
4742;SDS011;24293;48.154;7.748;2023-08-20T00:40:00;10.30;;;6.83;;
4742;SDS011;24293;48.154;7.748;2023-08-20T00:42:29;13.63;;;8.20;;
4742;SDS011;24293;48.154;7.748;2023-08-20T00:44:56;20.63;;;7.30;;
4742;SDS011;24293;48.154;7.748;2023-08-20T00:47:23;10.33;;;7.80;;
4742;SDS011;24293;48.154;7.748;2023-08-20T00:49:50;12.63;;;8.50;;
4742;SDS011;24293;48.154;7.748;2023-08-20T00:52:17;15.80;;;7.90;;
4742;SDS011;24293;48.154;7.748;2023-08-20T00:54:44;13.10;;;8.37;;
4742;SDS011;24293;48.154;7.748;2023-08-20T00:57:11;11.30;;;7.40;;
4742;SDS011;24293;48.154;7.748;2023-08-20T00:59:39;13.30;;;7.57;;
4742;SDS011;24293;48.154;7.748;2023-08-20T01:02:05;11.93;;;8.30;;
4742;SDS011;24293;48.154;7.748;2023-08-20T01:04:33;14.50;;;10.60;;
4742;SDS011;24293;48.154;7.748;2023-08-20T01:07:02;11.40;;;8.40;;
4742;SDS011;24293;48.154;7.748;2023-08-20T01:09:34;11.90;;;7.73;;
4742;SDS011;24293;48.154;7.748;2023-08-20T01:12:03;14.77;;;7.77;;
4742;SDS011;24293;48.154;7.748;2023-08-20T01:14:30;26.97;;;17.27;;
4742;SDS011;24293;48.154;7.748;2023-08-20T01:16:56;14.30;;;7.83;;
4742;SDS011;24293;48.154;7.748;2023-08-20T01:19:22;12.23;;;8.70;;
4742;SDS011;24293;48.154;7.748;2023-08-20T01:21:56;16.50;;;9.20;;
4742;SDS011;24293;48.154;7.748;2023-08-20T01:24:31;12.57;;;9.30;;
4742;SDS011;24293;48.154;7.748;2023-08-20T01:27:07;17.57;;;8.23;;
4742;SDS011;24293;48.154;7.748;2023-08-20T01:29:37;13.97;;;8.90;;
4742;SDS011;24293;48.154;7.748;2023-08-20T01:32:04;17.67;;;11.50;;
4742;SDS011;24293;48.154;7.748;2023-08-20T01:34:32;28.03;;;9.63;;
4742;SDS011;24293;48.154;7.748;2023-08-20T01:36:58;12.70;;;8.90;;
4742;SDS011;24293;48.154;7.748;2023-08-20T01:39:25;12.17;;;8.83;;
4742;SDS011;24293;48.154;7.748;2023-08-20T01:41:51;14.70;;;9.70;;
4742;SDS011;24293;48.154;7.748;2023-08-20T01:44:17;11.47;;;8.70;;
4742;SDS011;24293;48.154;7.748;2023-08-20T01:46:45;15.20;;;9.50;;
4742;SDS011;24293;48.154;7.748;2023-08-20T01:49:12;13.67;;;9.03;;
4742;SDS011;24293;48.154;7.748;2023-08-20T01:51:38;16.53;;;9.53;;
4742;SDS011;24293;48.154;7.748;2023-08-20T01:54:05;11.37;;;9.13;;
4742;SDS011;24293;48.154;7.748;2023-08-20T01:56:31;14.60;;;9.30;;
4742;SDS011;24293;48.154;7.748;2023-08-20T01:58:58;12.40;;;10.10;;
4742;SDS011;24293;48.154;7.748;2023-08-20T02:01:24;14.27;;;9.03;;
4742;SDS011;24293;48.154;7.748;2023-08-20T02:03:53;16.80;;;9.70;;
4742;SDS011;24293;48.154;7.748;2023-08-20T02:06:19;11.93;;;9.20;;
4742;SDS011;24293;48.154;7.748;2023-08-20T02:08:46;14.43;;;8.93;;
4742;SDS011;24293;48.154;7.748;2023-08-20T02:11:12;13.63;;;9.57;;
4742;SDS011;24293;48.154;7.748;2023-08-20T02:13:39;14.50;;;9.60;;
4742;SDS011;24293;48.154;7.748;2023-08-20T02:16:05;16.40;;;10.20;;
4742;SDS011;24293;48.154;7.748;2023-08-20T02:18:32;12.10;;;8.70;;
4742;SDS011;24293;48.154;7.748;2023-08-20T02:21:00;12.30;;;8.77;;
4742;SDS011;24293;48.154;7.748;2023-08-20T02:23:27;13.37;;;8.73;;
4742;SDS011;24293;48.154;7.748;2023-08-20T02:25:54;12.93;;;8.60;;
4742;SDS011;24293;48.154;7.748;2023-08-20T02:28:20;19.43;;;9.60;;
4742;SDS011;24293;48.154;7.748;2023-08-20T02:30:47;17.23;;;9.67;;
4742;SDS011;24293;48.154;7.748;2023-08-20T02:33:13;14.83;;;9.20;;
4742;SDS011;24293;48.154;7.748;2023-08-20T02:35:40;16.33;;;8.83;;
4742;SDS011;24293;48.154;7.748;2023-08-20T02:38:07;13.40;;;9.20;;
4742;SDS011;24293;48.154;7.748;2023-08-20T02:40:38;13.13;;;8.80;;
4742;SDS011;24293;48.154;7.748;2023-08-20T02:43:05;16.70;;;8.40;;
4742;SDS011;24293;48.154;7.748;2023-08-20T02:45:31;17.00;;;9.60;;
4742;SDS011;24293;48.154;7.748;2023-08-20T02:47:58;12.90;;;9.23;;
4742;SDS011;24293;48.154;7.748;2023-08-20T02:50:25;15.00;;;9.57;;
4742;SDS011;24293;48.154;7.748;2023-08-20T02:52:51;12.80;;;8.20;;
4742;SDS011;24293;48.154;7.748;2023-08-20T02:55:19;10.20;;;8.53;;
4742;SDS011;24293;48.154;7.748;2023-08-20T02:57:46;16.40;;;10.47;;
4742;SDS011;24293;48.154;7.748;2023-08-20T03:00:12;12.13;;;8.73;;
4742;SDS011;24293;48.154;7.748;2023-08-20T03:02:39;16.00;;;9.20;;
4742;SDS011;24293;48.154;7.748;2023-08-20T03:05:07;14.57;;;9.00;;
4742;SDS011;24293;48.154;7.748;2023-08-20T03:07:34;15.50;;;9.27;;
4742;SDS011;24293;48.154;7.748;2023-08-20T03:10:00;15.03;;;9.10;;
4742;SDS011;24293;48.154;7.748;2023-08-20T03:12:29;10.40;;;7.53;;
4742;SDS011;24293;48.154;7.748;2023-08-20T03:14:55;11.97;;;7.97;;
4742;SDS011;24293;48.154;7.748;2023-08-20T03:17:22;14.77;;;9.40;;
4742;SDS011;24293;48.154;7.748;2023-08-20T03:19:55;13.07;;;8.73;;
4742;SDS011;24293;48.154;7.748;2023-08-20T03:22:22;12.73;;;8.97;;
4742;SDS011;24293;48.154;7.748;2023-08-20T03:24:48;16.37;;;8.47;;
4742;SDS011;24293;48.154;7.748;2023-08-20T03:27:15;13.70;;;9.77;;
4742;SDS011;24293;48.154;7.748;2023-08-20T03:29:43;13.20;;;9.00;;
4742;SDS011;24293;48.154;7.748;2023-08-20T03:32:09;15.73;;;9.43;;
4742;SDS011;24293;48.154;7.748;2023-08-20T03:34:36;13.47;;;10.07;;
4742;SDS011;24293;48.154;7.748;2023-08-20T03:37:03;12.40;;;9.57;;
4742;SDS011;24293;48.154;7.748;2023-08-20T03:39:29;13.63;;;9.13;;
4742;SDS011;24293;48.154;7.748;2023-08-20T03:41:56;12.00;;;8.73;;
4742;SDS011;24293;48.154;7.748;2023-08-20T03:44:23;16.27;;;10.03;;
4742;SDS011;24293;48.154;7.748;2023-08-20T03:46:50;12.97;;;9.47;;
4742;SDS011;24293;48.154;7.748;2023-08-20T03:49:17;19.10;;;9.47;;
4742;SDS011;24293;48.154;7.748;2023-08-20T03:51:43;12.77;;;9.67;;
4742;SDS011;24293;48.154;7.748;2023-08-20T03:54:10;15.47;;;10.13;;
4742;SDS011;24293;48.154;7.748;2023-08-20T03:56:36;14.97;;;9.73;;
4742;SDS011;24293;48.154;7.748;2023-08-20T03:59:03;13.40;;;8.57;;
4742;SDS011;24293;48.154;7.748;2023-08-20T04:01:29;13.30;;;9.23;;
4742;SDS011;24293;48.154;7.748;2023-08-20T04:03:57;12.90;;;9.00;;
4742;SDS011;24293;48.154;7.748;2023-08-20T04:06:24;14.97;;;9.67;;
4742;SDS011;24293;48.154;7.748;2023-08-20T04:08:50;14.93;;;10.10;;
4742;SDS011;24293;48.154;7.748;2023-08-20T04:11:17;13.33;;;9.40;;
4742;SDS011;24293;48.154;7.748;2023-08-20T04:13:43;14.23;;;8.87;;
4742;SDS011;24293;48.154;7.748;2023-08-20T04:16:10;14.27;;;9.13;;
4742;SDS011;24293;48.154;7.748;2023-08-20T04:18:37;13.70;;;9.37;;
4742;SDS011;24293;48.154;7.748;2023-08-20T04:21:04;14.30;;;10.60;;
4742;SDS011;24293;48.154;7.748;2023-08-20T04:23:32;15.03;;;9.90;;
4742;SDS011;24293;48.154;7.748;2023-08-20T04:25:58;19.80;;;10.77;;
4742;SDS011;24293;48.154;7.748;2023-08-20T04:28:25;14.03;;;9.43;;
4742;SDS011;24293;48.154;7.748;2023-08-20T04:30:51;13.93;;;10.23;;
4742;SDS011;24293;48.154;7.748;2023-08-20T04:33:19;15.03;;;10.97;;
4742;SDS011;24293;48.154;7.748;2023-08-20T04:35:45;16.60;;;11.00;;
4742;SDS011;24293;48.154;7.748;2023-08-20T04:38:13;19.03;;;9.73;;
4742;SDS011;24293;48.154;7.748;2023-08-20T04:40:39;15.83;;;9.83;;
4742;SDS011;24293;48.154;7.748;2023-08-20T04:43:06;16.37;;;10.53;;
4742;SDS011;24293;48.154;7.748;2023-08-20T04:45:32;20.17;;;10.53;;
4742;SDS011;24293;48.154;7.748;2023-08-20T04:47:59;14.30;;;10.20;;
4742;SDS011;24293;48.154;7.748;2023-08-20T04:50:25;15.30;;;10.13;;
4742;SDS011;24293;48.154;7.748;2023-08-20T04:52:52;15.17;;;10.40;;
4742;SDS011;24293;48.154;7.748;2023-08-20T04:55:22;19.40;;;10.73;;
4742;SDS011;24293;48.154;7.748;2023-08-20T04:57:49;16.90;;;9.70;;
4742;SDS011;24293;48.154;7.748;2023-08-20T05:00:15;13.80;;;9.33;;
4742;SDS011;24293;48.154;7.748;2023-08-20T05:02:42;14.37;;;9.73;;
4742;SDS011;24293;48.154;7.748;2023-08-20T05:05:08;11.03;;;8.50;;
4742;SDS011;24293;48.154;7.748;2023-08-20T05:07:35;11.30;;;8.50;;
4742;SDS011;24293;48.154;7.748;2023-08-20T05:10:01;14.27;;;8.60;;
4742;SDS011;24293;48.154;7.748;2023-08-20T05:12:29;12.10;;;9.00;;
4742;SDS011;24293;48.154;7.748;2023-08-20T05:14:55;12.47;;;8.37;;
4742;SDS011;24293;48.154;7.748;2023-08-20T05:17:22;12.97;;;8.67;;
4742;SDS011;24293;48.154;7.748;2023-08-20T05:19:48;12.10;;;8.17;;
4742;SDS011;24293;48.154;7.748;2023-08-20T05:22:15;11.13;;;8.30;;
4742;SDS011;24293;48.154;7.748;2023-08-20T05:24:41;10.33;;;7.80;;
4742;SDS011;24293;48.154;7.748;2023-08-20T05:27:08;12.93;;;8.57;;
4742;SDS011;24293;48.154;7.748;2023-08-20T05:29:36;16.20;;;8.90;;
4742;SDS011;24293;48.154;7.748;2023-08-20T05:32:03;11.87;;;8.60;;
4742;SDS011;24293;48.154;7.748;2023-08-20T05:34:30;21.83;;;8.40;;
4742;SDS011;24293;48.154;7.748;2023-08-20T05:36:56;12.70;;;7.57;;
4742;SDS011;24293;48.154;7.748;2023-08-20T05:39:23;12.90;;;7.80;;
4742;SDS011;24293;48.154;7.748;2023-08-20T05:41:50;17.90;;;8.70;;
4742;SDS011;24293;48.154;7.748;2023-08-20T05:44:17;16.57;;;9.13;;
4742;SDS011;24293;48.154;7.748;2023-08-20T05:46:45;9.70;;;7.77;;
4742;SDS011;24293;48.154;7.748;2023-08-20T05:49:12;10.10;;;7.30;;
4742;SDS011;24293;48.154;7.748;2023-08-20T05:51:38;11.63;;;8.60;;
4742;SDS011;24293;48.154;7.748;2023-08-20T05:54:05;14.10;;;8.80;;
4742;SDS011;24293;48.154;7.748;2023-08-20T05:56:31;13.53;;;8.70;;
4742;SDS011;24293;48.154;7.748;2023-08-20T05:58:58;12.33;;;8.53;;
4742;SDS011;24293;48.154;7.748;2023-08-20T06:01:24;13.97;;;8.40;;
4742;SDS011;24293;48.154;7.748;2023-08-20T06:03:52;14.50;;;7.87;;
4742;SDS011;24293;48.154;7.748;2023-08-20T06:06:19;23.37;;;8.90;;
4742;SDS011;24293;48.154;7.748;2023-08-20T06:08:45;11.93;;;8.70;;
4742;SDS011;24293;48.154;7.748;2023-08-20T06:11:11;11.90;;;8.30;;
4742;SDS011;24293;48.154;7.748;2023-08-20T06:13:38;11.70;;;8.60;;
4742;SDS011;24293;48.154;7.748;2023-08-20T06:16:04;16.63;;;8.57;;
4742;SDS011;24293;48.154;7.748;2023-08-20T06:18:31;13.97;;;8.07;;
4742;SDS011;24293;48.154;7.748;2023-08-20T06:20:59;14.90;;;8.70;;
4742;SDS011;24293;48.154;7.748;2023-08-20T06:23:25;14.13;;;9.40;;
4742;SDS011;24293;48.154;7.748;2023-08-20T06:25:52;11.57;;;8.73;;
4742;SDS011;24293;48.154;7.748;2023-08-20T06:28:18;13.70;;;8.70;;
4742;SDS011;24293;48.154;7.748;2023-08-20T06:30:45;10.53;;;8.60;;
4742;SDS011;24293;48.154;7.748;2023-08-20T06:33:11;13.07;;;8.60;;
4742;SDS011;24293;48.154;7.748;2023-08-20T06:35:38;15.23;;;9.23;;
4742;SDS011;24293;48.154;7.748;2023-08-20T06:38:06;14.17;;;9.50;;
4742;SDS011;24293;48.154;7.748;2023-08-20T06:40:32;16.03;;;9.50;;
4742;SDS011;24293;48.154;7.748;2023-08-20T06:42:59;12.20;;;9.43;;
4742;SDS011;24293;48.154;7.748;2023-08-20T06:45:25;12.30;;;9.27;;
4742;SDS011;24293;48.154;7.748;2023-08-20T06:47:52;12.50;;;9.50;;
4742;SDS011;24293;48.154;7.748;2023-08-20T06:50:18;14.97;;;9.90;;
4742;SDS011;24293;48.154;7.748;2023-08-20T06:52:45;16.27;;;9.57;;
4742;SDS011;24293;48.154;7.748;2023-08-20T06:55:13;11.90;;;9.33;;
4742;SDS011;24293;48.154;7.748;2023-08-20T06:57:39;18.03;;;10.60;;
4742;SDS011;24293;48.154;7.748;2023-08-20T07:00:06;16.77;;;9.87;;
4742;SDS011;24293;48.154;7.748;2023-08-20T07:02:33;14.23;;;9.23;;
4742;SDS011;24293;48.154;7.748;2023-08-20T07:04:59;13.73;;;10.07;;
4742;SDS011;24293;48.154;7.748;2023-08-20T07:07:26;11.83;;;8.83;;
4742;SDS011;24293;48.154;7.748;2023-08-20T07:09:52;14.80;;;10.20;;
4742;SDS011;24293;48.154;7.748;2023-08-20T07:12:20;13.57;;;9.80;;
4742;SDS011;24293;48.154;7.748;2023-08-20T07:14:47;14.80;;;9.43;;
4742;SDS011;24293;48.154;7.748;2023-08-20T07:17:13;13.30;;;9.43;;
4742;SDS011;24293;48.154;7.748;2023-08-20T07:19:40;15.07;;;10.20;;
4742;SDS011;24293;48.154;7.748;2023-08-20T07:22:06;15.63;;;10.20;;
4742;SDS011;24293;48.154;7.748;2023-08-20T07:24:33;18.70;;;10.97;;
4742;SDS011;24293;48.154;7.748;2023-08-20T07:27:00;14.63;;;9.60;;
4742;SDS011;24293;48.154;7.748;2023-08-20T07:29:30;11.53;;;9.30;;
4742;SDS011;24293;48.154;7.748;2023-08-20T07:31:56;12.90;;;9.53;;
4742;SDS011;24293;48.154;7.748;2023-08-20T07:34:23;16.70;;;10.10;;
4742;SDS011;24293;48.154;7.748;2023-08-20T07:36:49;16.50;;;9.73;;
4742;SDS011;24293;48.154;7.748;2023-08-20T07:39:16;12.73;;;9.80;;
4742;SDS011;24293;48.154;7.748;2023-08-20T07:41:42;14.80;;;10.17;;
4742;SDS011;24293;48.154;7.748;2023-08-20T07:44:08;15.07;;;9.30;;
4742;SDS011;24293;48.154;7.748;2023-08-20T07:46:36;15.60;;;10.03;;
4742;SDS011;24293;48.154;7.748;2023-08-20T07:49:03;15.30;;;10.10;;
4742;SDS011;24293;48.154;7.748;2023-08-20T07:51:30;13.33;;;9.33;;
4742;SDS011;24293;48.154;7.748;2023-08-20T07:53:56;11.00;;;8.53;;
4742;SDS011;24293;48.154;7.748;2023-08-20T07:56:24;15.70;;;9.90;;
4742;SDS011;24293;48.154;7.748;2023-08-20T07:58:51;14.50;;;10.67;;
4742;SDS011;24293;48.154;7.748;2023-08-20T08:01:17;13.47;;;9.47;;
4742;SDS011;24293;48.154;7.748;2023-08-20T08:03:45;13.17;;;9.93;;
4742;SDS011;24293;48.154;7.748;2023-08-20T08:06:11;13.20;;;9.40;;
4742;SDS011;24293;48.154;7.748;2023-08-20T08:08:42;12.77;;;9.23;;
4742;SDS011;24293;48.154;7.748;2023-08-20T08:11:08;13.03;;;9.73;;
4742;SDS011;24293;48.154;7.748;2023-08-20T08:13:35;13.20;;;10.67;;
4742;SDS011;24293;48.154;7.748;2023-08-20T08:16:01;14.17;;;9.70;;
4742;SDS011;24293;48.154;7.748;2023-08-20T08:18:28;13.80;;;9.07;;
4742;SDS011;24293;48.154;7.748;2023-08-20T08:20:56;16.70;;;10.07;;
4742;SDS011;24293;48.154;7.748;2023-08-20T08:23:22;14.33;;;9.53;;
4742;SDS011;24293;48.154;7.748;2023-08-20T08:25:48;18.40;;;12.87;;
4742;SDS011;24293;48.154;7.748;2023-08-20T08:28:15;14.40;;;9.27;;
4742;SDS011;24293;48.154;7.748;2023-08-20T08:30:41;18.30;;;10.00;;
4742;SDS011;24293;48.154;7.748;2023-08-20T08:33:08;15.30;;;9.30;;
4742;SDS011;24293;48.154;7.748;2023-08-20T08:35:34;15.43;;;9.80;;
4742;SDS011;24293;48.154;7.748;2023-08-20T08:38:02;13.97;;;9.77;;
4742;SDS011;24293;48.154;7.748;2023-08-20T08:40:30;13.17;;;8.90;;
4742;SDS011;24293;48.154;7.748;2023-08-20T08:42:56;12.27;;;8.00;;
4742;SDS011;24293;48.154;7.748;2023-08-20T08:45:23;10.70;;;8.30;;
4742;SDS011;24293;48.154;7.748;2023-08-20T08:47:49;14.20;;;9.90;;
4742;SDS011;24293;48.154;7.748;2023-08-20T08:50:17;12.90;;;9.93;;
4742;SDS011;24293;48.154;7.748;2023-08-20T08:52:44;18.20;;;9.70;;
4742;SDS011;24293;48.154;7.748;2023-08-20T08:55:12;13.50;;;9.97;;
4742;SDS011;24293;48.154;7.748;2023-08-20T08:57:39;11.67;;;9.67;;
4742;SDS011;24293;48.154;7.748;2023-08-20T09:00:06;14.97;;;9.57;;
4742;SDS011;24293;48.154;7.748;2023-08-20T09:02:32;15.07;;;8.13;;
4742;SDS011;24293;48.154;7.748;2023-08-20T09:04:59;15.40;;;8.70;;
4742;SDS011;24293;48.154;7.748;2023-08-20T09:07:25;13.53;;;9.00;;
4742;SDS011;24293;48.154;7.748;2023-08-20T09:09:56;13.53;;;8.07;;
4742;SDS011;24293;48.154;7.748;2023-08-20T09:12:24;22.47;;;9.27;;
4742;SDS011;24293;48.154;7.748;2023-08-20T09:14:52;17.83;;;8.77;;
4742;SDS011;24293;48.154;7.748;2023-08-20T09:17:19;16.73;;;13.03;;
4742;SDS011;24293;48.154;7.748;2023-08-20T09:19:46;14.20;;;9.20;;
4742;SDS011;24293;48.154;7.748;2023-08-20T09:22:12;15.73;;;10.00;;
4742;SDS011;24293;48.154;7.748;2023-08-20T09:24:39;12.70;;;9.20;;
4742;SDS011;24293;48.154;7.748;2023-08-20T09:27:07;16.87;;;9.17;;
4742;SDS011;24293;48.154;7.748;2023-08-20T09:29:36;12.90;;;9.40;;
4742;SDS011;24293;48.154;7.748;2023-08-20T09:32:09;12.03;;;9.07;;
4742;SDS011;24293;48.154;7.748;2023-08-20T09:34:39;13.57;;;9.17;;
4742;SDS011;24293;48.154;7.748;2023-08-20T09:37:09;14.27;;;9.30;;
4742;SDS011;24293;48.154;7.748;2023-08-20T09:39:36;13.60;;;10.60;;
4742;SDS011;24293;48.154;7.748;2023-08-20T09:42:03;16.80;;;9.33;;
4742;SDS011;24293;48.154;7.748;2023-08-20T09:44:32;14.00;;;9.83;;
4742;SDS011;24293;48.154;7.748;2023-08-20T09:47:00;14.23;;;10.03;;
4742;SDS011;24293;48.154;7.748;2023-08-20T09:49:29;18.43;;;9.87;;
4742;SDS011;24293;48.154;7.748;2023-08-20T09:51:57;14.03;;;9.00;;
4742;SDS011;24293;48.154;7.748;2023-08-20T09:54:26;22.33;;;9.60;;
4742;SDS011;24293;48.154;7.748;2023-08-20T09:56:54;13.53;;;10.30;;
4742;SDS011;24293;48.154;7.748;2023-08-20T09:59:24;14.90;;;9.60;;
4742;SDS011;24293;48.154;7.748;2023-08-20T10:01:51;11.13;;;8.60;;
4742;SDS011;24293;48.154;7.748;2023-08-20T10:04:20;13.20;;;8.83;;
4742;SDS011;24293;48.154;7.748;2023-08-20T10:06:47;10.53;;;7.60;;
4742;SDS011;24293;48.154;7.748;2023-08-20T10:09:14;10.10;;;7.93;;
4742;SDS011;24293;48.154;7.748;2023-08-20T10:11:40;10.60;;;6.70;;
4742;SDS011;24293;48.154;7.748;2023-08-20T10:14:07;12.17;;;9.07;;
4742;SDS011;24293;48.154;7.748;2023-08-20T10:16:34;11.20;;;7.27;;
4742;SDS011;24293;48.154;7.748;2023-08-20T10:19:01;10.63;;;6.70;;
4742;SDS011;24293;48.154;7.748;2023-08-20T10:21:29;15.57;;;7.73;;
4742;SDS011;24293;48.154;7.748;2023-08-20T10:23:56;10.10;;;8.23;;
4742;SDS011;24293;48.154;7.748;2023-08-20T10:26:22;15.20;;;7.27;;
4742;SDS011;24293;48.154;7.748;2023-08-20T10:28:50;11.53;;;8.20;;
4742;SDS011;24293;48.154;7.748;2023-08-20T10:31:16;12.80;;;9.03;;
4742;SDS011;24293;48.154;7.748;2023-08-20T10:33:48;11.33;;;7.10;;
4742;SDS011;24293;48.154;7.748;2023-08-20T10:36:17;9.90;;;6.37;;
4742;SDS011;24293;48.154;7.748;2023-08-20T10:38:50;11.90;;;6.00;;
4742;SDS011;24293;48.154;7.748;2023-08-20T10:41:24;8.67;;;5.90;;
4742;SDS011;24293;48.154;7.748;2023-08-20T10:43:51;12.63;;;6.50;;
4742;SDS011;24293;48.154;7.748;2023-08-20T10:46:18;13.70;;;6.10;;
4742;SDS011;24293;48.154;7.748;2023-08-20T10:48:46;18.27;;;6.60;;
4742;SDS011;24293;48.154;7.748;2023-08-20T10:51:14;8.60;;;6.50;;
4742;SDS011;24293;48.154;7.748;2023-08-20T10:53:42;11.90;;;6.40;;
4742;SDS011;24293;48.154;7.748;2023-08-20T10:56:12;9.40;;;6.20;;
4742;SDS011;24293;48.154;7.748;2023-08-20T10:58:42;9.93;;;7.13;;
4742;SDS011;24293;48.154;7.748;2023-08-20T11:01:13;10.23;;;6.60;;
4742;SDS011;24293;48.154;7.748;2023-08-20T11:03:40;9.30;;;6.27;;
4742;SDS011;24293;48.154;7.748;2023-08-20T11:06:08;10.43;;;6.87;;
4742;SDS011;24293;48.154;7.748;2023-08-20T11:08:35;10.53;;;6.70;;
4742;SDS011;24293;48.154;7.748;2023-08-20T11:11:02;9.60;;;7.00;;
4742;SDS011;24293;48.154;7.748;2023-08-20T11:13:31;10.80;;;7.10;;
4742;SDS011;24293;48.154;7.748;2023-08-20T11:15:58;9.10;;;6.70;;
4742;SDS011;24293;48.154;7.748;2023-08-20T11:18:25;10.37;;;6.83;;
4742;SDS011;24293;48.154;7.748;2023-08-20T11:20:51;10.10;;;6.97;;
4742;SDS011;24293;48.154;7.748;2023-08-20T11:23:18;14.80;;;7.00;;
4742;SDS011;24293;48.154;7.748;2023-08-20T11:25:45;10.40;;;6.97;;
4742;SDS011;24293;48.154;7.748;2023-08-20T11:28:11;9.40;;;6.27;;
4742;SDS011;24293;48.154;7.748;2023-08-20T11:30:40;7.93;;;6.27;;
4742;SDS011;24293;48.154;7.748;2023-08-20T11:33:07;12.73;;;6.50;;
4742;SDS011;24293;48.154;7.748;2023-08-20T11:35:34;8.80;;;6.33;;
4742;SDS011;24293;48.154;7.748;2023-08-20T11:38:01;10.30;;;7.33;;
4742;SDS011;24293;48.154;7.748;2023-08-20T11:40:29;9.77;;;6.60;;
4742;SDS011;24293;48.154;7.748;2023-08-20T11:42:55;8.90;;;6.10;;
4742;SDS011;24293;48.154;7.748;2023-08-20T11:45:22;11.73;;;6.33;;
4742;SDS011;24293;48.154;7.748;2023-08-20T11:47:49;12.43;;;7.30;;
4742;SDS011;24293;48.154;7.748;2023-08-20T11:50:21;9.13;;;6.80;;
4742;SDS011;24293;48.154;7.748;2023-08-20T11:52:51;8.27;;;6.20;;
4742;SDS011;24293;48.154;7.748;2023-08-20T11:55:29;9.43;;;6.80;;
4742;SDS011;24293;48.154;7.748;2023-08-20T11:57:56;12.43;;;7.13;;
4742;SDS011;24293;48.154;7.748;2023-08-20T12:00:26;8.80;;;7.00;;
4742;SDS011;24293;48.154;7.748;2023-08-20T12:02:54;9.73;;;6.67;;
4742;SDS011;24293;48.154;7.748;2023-08-20T12:05:21;9.83;;;6.67;;
4742;SDS011;24293;48.154;7.748;2023-08-20T12:07:55;11.40;;;6.70;;
4742;SDS011;24293;48.154;7.748;2023-08-20T12:10:23;12.87;;;6.00;;
4742;SDS011;24293;48.154;7.748;2023-08-20T12:12:49;10.90;;;6.80;;
4742;SDS011;24293;48.154;7.748;2023-08-20T12:15:16;10.60;;;6.80;;
4742;SDS011;24293;48.154;7.748;2023-08-20T12:17:43;8.53;;;6.27;;
4742;SDS011;24293;48.154;7.748;2023-08-20T12:20:11;12.33;;;6.73;;
4742;SDS011;24293;48.154;7.748;2023-08-20T12:22:38;12.20;;;7.80;;
4742;SDS011;24293;48.154;7.748;2023-08-20T12:25:05;8.60;;;5.90;;
4742;SDS011;24293;48.154;7.748;2023-08-20T12:27:31;10.87;;;6.67;;
4742;SDS011;24293;48.154;7.748;2023-08-20T12:29:58;10.70;;;7.20;;
4742;SDS011;24293;48.154;7.748;2023-08-20T12:32:24;8.57;;;6.87;;
4742;SDS011;24293;48.154;7.748;2023-08-20T12:34:51;16.50;;;7.00;;
4742;SDS011;24293;48.154;7.748;2023-08-20T12:37:19;10.73;;;6.50;;
4742;SDS011;24293;48.154;7.748;2023-08-20T12:39:45;11.20;;;7.10;;
4742;SDS011;24293;48.154;7.748;2023-08-20T12:42:11;11.40;;;6.80;;
4742;SDS011;24293;48.154;7.748;2023-08-20T12:44:38;11.10;;;6.20;;
4742;SDS011;24293;48.154;7.748;2023-08-20T12:47:04;13.60;;;6.73;;
4742;SDS011;24293;48.154;7.748;2023-08-20T12:49:31;12.90;;;6.37;;
4742;SDS011;24293;48.154;7.748;2023-08-20T12:51:57;9.37;;;6.83;;
4742;SDS011;24293;48.154;7.748;2023-08-20T12:54:25;9.97;;;6.60;;
4742;SDS011;24293;48.154;7.748;2023-08-20T12:56:52;9.07;;;6.20;;
4742;SDS011;24293;48.154;7.748;2023-08-20T12:59:18;9.27;;;5.83;;
4742;SDS011;24293;48.154;7.748;2023-08-20T13:01:45;12.20;;;5.93;;
4742;SDS011;24293;48.154;7.748;2023-08-20T13:04:12;8.77;;;6.40;;
4742;SDS011;24293;48.154;7.748;2023-08-20T13:06:38;10.10;;;5.77;;
4742;SDS011;24293;48.154;7.748;2023-08-20T13:09:05;10.50;;;6.33;;
4742;SDS011;24293;48.154;7.748;2023-08-20T13:11:35;8.50;;;5.80;;
4742;SDS011;24293;48.154;7.748;2023-08-20T13:14:02;12.57;;;5.67;;
4742;SDS011;24293;48.154;7.748;2023-08-20T13:16:29;10.60;;;7.00;;
4742;SDS011;24293;48.154;7.748;2023-08-20T13:18:55;8.10;;;5.90;;
4742;SDS011;24293;48.154;7.748;2023-08-20T13:21:22;7.80;;;5.07;;
4742;SDS011;24293;48.154;7.748;2023-08-20T13:23:49;9.93;;;5.43;;
4742;SDS011;24293;48.154;7.748;2023-08-20T13:26:15;8.40;;;5.70;;
4742;SDS011;24293;48.154;7.748;2023-08-20T13:28:44;9.20;;;5.67;;
4742;SDS011;24293;48.154;7.748;2023-08-20T13:31:11;9.40;;;5.97;;
4742;SDS011;24293;48.154;7.748;2023-08-20T13:33:38;9.00;;;5.53;;
4742;SDS011;24293;48.154;7.748;2023-08-20T13:36:05;10.07;;;5.53;;
4742;SDS011;24293;48.154;7.748;2023-08-20T13:38:32;9.50;;;5.20;;
4742;SDS011;24293;48.154;7.748;2023-08-20T13:40:59;7.27;;;5.07;;
4742;SDS011;24293;48.154;7.748;2023-08-20T13:43:26;8.97;;;4.80;;
4742;SDS011;24293;48.154;7.748;2023-08-20T13:45:54;7.43;;;4.67;;
4742;SDS011;24293;48.154;7.748;2023-08-20T13:48:20;12.90;;;5.90;;
4742;SDS011;24293;48.154;7.748;2023-08-20T13:50:46;7.60;;;5.50;;
4742;SDS011;24293;48.154;7.748;2023-08-20T13:53:13;9.43;;;5.50;;
4742;SDS011;24293;48.154;7.748;2023-08-20T13:55:40;11.73;;;5.30;;
4742;SDS011;24293;48.154;7.748;2023-08-20T13:58:06;8.07;;;4.70;;
4742;SDS011;24293;48.154;7.748;2023-08-20T14:00:33;9.43;;;5.20;;
4742;SDS011;24293;48.154;7.748;2023-08-20T14:03:01;16.07;;;5.00;;
4742;SDS011;24293;48.154;7.748;2023-08-20T14:05:27;9.10;;;5.07;;
4742;SDS011;24293;48.154;7.748;2023-08-20T14:07:54;9.60;;;5.40;;
4742;SDS011;24293;48.154;7.748;2023-08-20T14:10:21;10.83;;;4.50;;
4742;SDS011;24293;48.154;7.748;2023-08-20T14:12:47;7.13;;;4.90;;
4742;SDS011;24293;48.154;7.748;2023-08-20T14:15:14;10.57;;;4.70;;
4742;SDS011;24293;48.154;7.748;2023-08-20T14:17:40;11.27;;;4.93;;
4742;SDS011;24293;48.154;7.748;2023-08-20T14:20:09;8.10;;;5.13;;
4742;SDS011;24293;48.154;7.748;2023-08-20T14:22:36;10.47;;;4.20;;
4742;SDS011;24293;48.154;7.748;2023-08-20T14:25:03;9.13;;;4.73;;
4742;SDS011;24293;48.154;7.748;2023-08-20T14:27:30;8.37;;;4.50;;
4742;SDS011;24293;48.154;7.748;2023-08-20T14:29:56;6.50;;;4.90;;
4742;SDS011;24293;48.154;7.748;2023-08-20T14:32:23;8.60;;;4.60;;
4742;SDS011;24293;48.154;7.748;2023-08-20T14:34:49;10.80;;;5.80;;
4742;SDS011;24293;48.154;7.748;2023-08-20T14:37:17;7.57;;;4.70;;
4742;SDS011;24293;48.154;7.748;2023-08-20T14:39:44;8.67;;;5.00;;
4742;SDS011;24293;48.154;7.748;2023-08-20T14:42:10;9.67;;;4.60;;
4742;SDS011;24293;48.154;7.748;2023-08-20T14:44:36;7.53;;;4.53;;
4742;SDS011;24293;48.154;7.748;2023-08-20T14:47:04;10.23;;;4.57;;